Time;durP1;ratioP1;P1;durP2;ratioP2;P2;SDS_P1;SDS_P2;PMS_P1;PMS_P2;Temp;Humidity;BMP_temperature;BMP_pressure;BME280_temperature;BME280_humidity;BME280_pressure;Samples;Min_cycle;Max_cycle;Signal;HPM_P1;HPM_P2
2023/11/13 00:00:50;;;;;;;25.98;24.17;;;;;;;5.48;100.00;101104.38;5007266;28;20050;-76
2023/11/13 00:03:27;;;;;;;24.38;22.67;;;;;;;5.69;100.00;101096.81;5006585;28;20056;-76
2023/11/13 00:05:56;;;;;;;29.20;27.40;;;;;;;5.72;100.00;101103.56;5011035;28;20111;-76
2023/11/13 00:08:26;;;;;;;27.48;25.77;;;;;;;5.89;100.00;101099.09;5012238;28;20046;-76
2023/11/13 00:10:54;;;;;;;36.65;34.47;;;;;;;5.83;100.00;101102.41;5015582;28;20046;-76
2023/11/13 00:13:40;;;;;;;29.60;27.70;;;;;;;5.95;100.00;101103.75;5012013;28;20046;-76
2023/11/13 00:16:08;;;;;;;25.95;24.15;;;;;;;5.43;100.00;101109.31;5012051;28;20128;-76
2023/11/13 00:18:35;;;;;;;27.60;25.80;;;;;;;5.77;100.00;101108.34;5015196;28;20053;-76
2023/11/13 00:21:01;;;;;;;33.22;31.42;;;;;;;5.86;100.00;101115.25;5015320;28;20132;-76
2023/11/13 00:23:30;;;;;;;40.08;37.88;;;;;;;5.71;100.00;101105.38;5014430;28;20060;-76
2023/11/13 00:26:03;;;;;;;30.65;28.85;;;;;;;5.81;100.00;101117.56;5010621;28;20145;-76
2023/11/13 00:28:29;;;;;;;28.80;26.90;;;;;;;5.65;100.00;101119.19;5019315;28;20053;-76
2023/11/13 00:30:57;;;;;;;35.80;33.78;;;;;;;5.70;100.00;101119.53;5018523;28;20523;-77
2023/11/13 00:33:31;;;;;;;33.28;31.17;;;;;;;5.74;100.00;101117.41;5010970;28;20068;-76
2023/11/13 00:35:58;;;;;;;30.42;27.92;;;;;;;5.80;100.00;101121.19;5011340;28;20518;-76
2023/11/13 00:38:42;;;;;;;29.63;27.80;;;;;;;5.94;100.00;101116.13;5014834;28;20050;-76
2023/11/13 00:41:11;;;;;;;32.58;30.58;;;;;;;6.00;100.00;101106.72;5008862;28;20057;-76
2023/11/13 00:43:37;;;;;;;29.92;27.83;;;;;;;5.77;100.00;101105.69;5018378;28;20050;-76
2023/11/13 00:46:04;;;;;;;32.08;29.88;;;;;;;5.81;100.00;101105.22;5013740;28;20068;-76
2023/11/13 00:48:32;;;;;;;33.50;31.50;;;;;;;5.77;100.00;101105.69;5019266;28;20041;-75
2023/11/13 00:51:19;;;;;;;33.35;31.35;;;;;;;5.82;100.00;101096.31;5014444;28;20042;-76
2023/11/13 00:53:47;;;;;;;29.80;28.00;;;;;;;5.82;100.00;101096.31;5001244;28;20053;-76
2023/11/13 00:56:14;;;;;;;32.25;30.05;;;;;;;5.58;100.00;101093.69;5016216;28;20527;-75
2023/11/13 00:58:41;;;;;;;38.42;35.92;;;;;;;5.57;100.00;101097.28;5017385;28;20819;-76
2023/11/13 01:01:10;;;;;;;39.08;36.88;;;;;;;5.42;100.00;101103.22;5013097;28;20073;-76
2023/11/13 01:03:37;;;;;;;35.33;33.33;;;;;;;5.42;100.00;101111.13;5008322;28;20056;-77
2023/11/13 01:06:04;;;;;;;33.03;30.92;;;;;;;5.03;100.00;101113.50;5015967;28;20050;-77
2023/11/13 01:08:31;;;;;;;33.42;31.20;;;;;;;5.10;100.00;101111.03;5009430;28;20042;-77
2023/11/13 01:10:59;;;;;;;28.48;26.67;;;;;;;4.81;100.00;101107.84;5015465;28;20057;-77
2023/11/13 01:13:26;;;;;;;35.17;33.05;;;;;;;5.10;100.00;101118.94;5010096;28;20046;-77
2023/11/13 01:15:57;;;;;;;28.00;26.20;;;;;;;5.16;100.00;101107.78;5013980;28;20053;-76
2023/11/13 01:18:26;;;;;;;28.27;26.48;;;;;;;5.22;100.00;101115.84;5014766;28;20500;-77
2023/11/13 01:20:56;;;;;;;30.45;28.45;;;;;;;5.15;100.00;101114.84;5011837;28;20046;-77
2023/11/13 01:23:25;;;;;;;26.65;24.95;;;;;;;5.17;100.00;101119.94;5011303;28;20048;-77
2023/11/13 01:25:53;;;;;;;30.65;28.85;;;;;;;5.12;100.00;101120.44;5011276;28;20092;-76
2023/11/13 01:28:21;;;;;;;30.98;29.08;;;;;;;5.21;100.00;101124.75;5010572;28;20069;-76
2023/11/13 01:30:51;;;;;;;28.95;27.15;;;;;;;5.23;100.00;101125.41;5021267;28;20049;-75
2023/11/13 01:33:21;;;;;;;29.40;27.58;;;;;;;5.18;100.00;101124.25;5029498;28;20073;-76
2023/11/13 01:35:49;;;;;;;31.40;29.50;;;;;;;5.18;100.00;101121.63;5014732;28;20096;-76
2023/11/13 01:38:16;;;;;;;27.65;25.95;;;;;;;5.01;100.00;101113.66;5018410;28;20177;-76
2023/11/13 01:40:51;;;;;;;29.35;27.45;;;;;;;4.87;100.00;101116.06;5010140;28;20042;-76
2023/11/13 01:43:25;;;;;;;30.58;28.77;;;;;;;5.06;100.00;101121.09;5008738;28;20038;-76
2023/11/13 01:45:59;;;;;;;28.00;26.20;;;;;;;4.92;100.00;101117.22;5018711;28;20412;-76
2023/11/13 01:48:27;;;;;;;25.77;24.08;;;;;;;4.59;100.00;101126.78;5012516;28;20129;-76
2023/11/13 01:50:57;;;;;;;24.65;23.05;;;;;;;4.54;100.00;101124.66;5012004;28;20064;-76
2023/11/13 01:53:28;;;;;;;26.65;24.75;;;;;;;4.71;100.00;101120.28;5018173;28;20064;-76
2023/11/13 01:55:57;;;;;;;27.17;25.08;;;;;;;4.29;100.00;101117.56;5019903;28;20054;-76
2023/11/13 01:58:26;;;;;;;26.95;25.25;;;;;;;4.49;100.00;101118.19;5020550;28;20045;-76
2023/11/13 02:00:55;;;;;;;30.42;28.52;;;;;;;4.32;100.00;101128.59;5014592;28;20104;-76
2023/11/13 02:03:25;;;;;;;25.52;23.83;;;;;;;4.37;100.00;101122.91;5011512;28;20053;-76
2023/11/13 02:05:53;;;;;;;25.48;23.67;;;;;;;4.39;100.00;101125.34;5015117;28;20061;-76
2023/11/13 02:08:20;;;;;;;30.90;29.00;;;;;;;4.40;100.00;101114.69;5014281;28;20157;-76
2023/11/13 02:10:48;;;;;;;26.63;24.83;;;;;;;4.00;100.00;101126.59;5012716;28;20054;-76
2023/11/13 02:13:17;;;;;;;28.98;26.85;;;;;;;3.84;100.00;101124.69;5019767;28;20393;-76
2023/11/13 02:15:46;;;;;;;29.13;27.33;;;;;;;3.91;100.00;101132.78;5024225;28;20129;-76
2023/11/13 02:18:13;;;;;;;29.10;27.20;;;;;;;4.08;100.00;101133.69;5015637;28;20064;-76
2023/11/13 02:20:56;;;;;;;30.67;28.88;;;;;;;4.10;100.00;101121.25;5016673;28;20455;-76
2023/11/13 02:23:26;;;;;;;29.52;27.63;;;;;;;3.85;100.00;101126.31;5013909;28;20046;-76
2023/11/13 02:25:56;;;;;;;31.42;29.52;;;;;;;3.78;100.00;101121.81;5017665;28;20057;-76
2023/11/13 02:28:23;;;;;;;29.98;28.08;;;;;;;3.65;100.00;101116.94;5010298;28;20107;-76
2023/11/13 02:31:01;;;;;;;28.42;26.52;;;;;;;3.46;100.00;101120.53;5002105;28;20050;-76
2023/11/13 02:33:28;;;;;;;36.08;33.88;;;;;;;3.47;100.00;101119.56;5014300;28;20046;-76
2023/11/13 02:35:55;;;;;;;33.10;31.20;;;;;;;3.43;100.00;101126.91;5018075;28;20054;-76
2023/11/13 02:38:23;;;;;;;32.22;30.13;;;;;;;3.39;100.00;101127.38;5014194;28;20136;-75
2023/11/13 02:40:51;;;;;;;29.42;27.63;;;;;;;3.25;100.00;101123.44;5012767;28;20499;-76
2023/11/13 02:43:18;;;;;;;26.80;25.10;;;;;;;3.41;100.00;101120.97;5019868;28;20435;-76
2023/11/13 02:45:57;;;;;;;27.70;26.00;;;;;;;3.61;100.00;101132.19;5018524;28;20638;-76
2023/11/13 02:48:28;;;;;;;29.50;27.70;;;;;;;3.68;100.00;101122.72;5011789;28;20046;-76
2023/11/13 02:50:55;;;;;;;32.17;30.17;;;;;;;3.35;100.00;101134.72;5017891;28;20137;-76
2023/11/13 02:53:21;;;;;;;35.75;33.65;;;;;;;3.36;100.00;101133.75;5019235;28;20054;-76
2023/11/13 02:55:51;;;;;;;29.02;27.23;;;;;;;3.21;100.00;101140.47;5016996;28;20054;-76
2023/11/13 02:58:19;;;;;;;29.90;28.08;;;;;;;3.53;100.00;101134.72;5012302;28;20140;-76
2023/11/13 03:00:47;;;;;;;31.25;29.35;;;;;;;3.70;100.00;101133.09;5014450;28;20072;-76
2023/11/13 03:03:14;;;;;;;33.15;31.25;;;;;;;3.32;100.00;101134.19;5006641;28;20042;-76
2023/11/13 03:05:41;;;;;;;34.20;32.10;;;;;;;3.47;100.00;101135.31;5017821;28;20057;-76
2023/11/13 03:08:08;;;;;;;36.15;34.05;;;;;;;3.52;100.00;101133.09;5011128;28;20053;-76
2023/11/13 03:10:35;;;;;;;41.33;38.97;;;;;;;3.42;100.00;101132.34;5011609;28;20070;-76
2023/11/13 03:13:02;;;;;;;38.70;36.60;;;;;;;3.37;100.00;101131.94;5011987;28;20045;-75
2023/11/13 03:15:31;;;;;;;31.23;29.55;;;;;;;3.10;100.00;101138.88;5014465;28;20480;-75
2023/11/13 03:18:14;;;;;;;32.22;30.33;;;;;;;3.01;100.00;101141.56;5012961;28;20065;-76
2023/11/13 03:20:43;;;;;;;39.80;37.40;;;;;;;3.17;100.00;101149.59;5016679;28;20435;-76
2023/11/13 03:23:32;;;;;;;36.33;34.03;;;;;;;3.26;100.00;101143.47;5015464;28;20137;-76
2023/11/13 03:26:00;;;;;;;29.10;27.40;;;;;;;3.25;100.00;101141.00;5012020;28;20050;-75
2023/11/13 03:28:27;;;;;;;31.42;29.52;;;;;;;3.29;100.00;101142.34;5011144;28;20466;-76
2023/11/13 03:30:55;;;;;;;29.60;27.80;;;;;;;3.18;100.00;101122.41;5011802;28;20061;-76
2023/11/13 03:33:23;;;;;;;28.50;26.70;;;;;;;3.15;100.00;101128.78;5019148;28;20041;-76
2023/11/13 03:35:50;;;;;;;26.52;24.77;;;;;;;3.09;100.00;101120.66;5016493;28;20053;-75
2023/11/13 03:38:18;;;;;;;25.42;23.73;;;;;;;2.55;100.00;101119.66;5014297;28;20057;-76
2023/11/13 03:40:45;;;;;;;25.35;23.83;;;;;;;2.17;100.00;101119.63;5016543;28;20073;-76
2023/11/13 03:43:12;;;;;;;24.65;23.15;;;;;;;2.46;100.00;101129.22;5010980;28;20072;-76
2023/11/13 03:45:38;;;;;;;25.17;23.58;;;;;;;2.52;100.00;101118.97;5008691;28;20080;-76
2023/11/13 03:48:07;;;;;;;25.35;23.85;;;;;;;2.22;100.00;101116.59;5012318;28;20046;-76
2023/11/13 03:50:34;;;;;;;24.08;22.67;;;;;;;2.45;100.00;101131.03;5022694;28;21126;-76
2023/11/13 03:53:00;;;;;;;24.67;22.98;;;;;;;1.92;100.00;101135.94;5014809;28;20053;-76
2023/11/13 03:55:49;;;;;;;25.33;23.70;;;;;;;1.85;100.00;101140.91;5014527;28;20049;-76
2023/11/13 03:58:25;;;;;;;23.23;21.77;;;;;;;2.27;100.00;101137.97;5010700;28;20049;-73
2023/11/13 04:00:58;;;;;;;24.70;22.95;;;;;;;2.50;100.00;101133.19;5018968;28;20111;-73
2023/11/13 04:03:27;;;;;;;24.05;22.65;;;;;;;2.04;100.00;101145.31;5009064;28;20041;-74
2023/11/13 04:05:54;;;;;;;25.98;24.27;;;;;;;1.57;100.00;101143.41;5011886;28;20046;-74
2023/11/13 04:08:21;;;;;;;25.83;24.02;;;;;;;1.90;100.00;101146.53;5016376;28;20219;-74
2023/11/13 04:10:49;;;;;;;28.60;26.70;;;;;;;1.73;100.00;101140.22;5014527;28;20084;-74
2023/11/13 04:13:52;;;;;;;25.88;24.27;;;;;;;1.94;100.00;101139.25;5014664;28;20046;-74
2023/11/13 04:16:19;;;;;;;26.23;24.63;;;;;;;1.93;100.00;101148.06;5011124;28;20046;-75
2023/11/13 04:19:06;;;;;;;24.65;23.08;;;;;;;1.22;100.00;101146.50;5013624;28;20053;-74
2023/11/13 04:21:32;;;;;;;30.05;28.15;;;;;;;1.37;100.00;101154.81;5016279;28;20130;-75
2023/11/13 04:24:05;;;;;;;27.73;26.02;;;;;;;1.18;100.00;101158.22;5017864;28;20506;-74
2023/11/13 04:26:32;;;;;;;27.73;26.02;;;;;;;1.30;100.00;101159.75;5008524;28;20145;-74
2023/11/13 04:28:59;;;;;;;27.48;25.77;;;;;;;1.54;100.00;101163.75;5006765;28;20050;-74
2023/11/13 04:31:26;;;;;;;27.42;25.73;;;;;;;1.29;100.00;101173.78;5005815;28;20050;-74
2023/11/13 04:33:53;;;;;;;30.85;28.85;;;;;;;1.58;100.00;101173.84;5009338;28;20049;-74
2023/11/13 04:36:21;;;;;;;25.13;23.52;;;;;;;1.42;100.00;101184.00;5005761;28;20061;-75
2023/11/13 04:38:48;;;;;;;23.88;22.38;;;;;;;1.28;100.00;101182.59;5008648;28;20100;-74
2023/11/13 04:41:16;;;;;;;27.10;25.30;;;;;;;1.06;100.00;101181.03;5009105;28;20061;-73
2023/11/13 04:43:43;;;;;;;45.13;41.38;;;;;;;0.74;100.00;101183.78;5011272;28;20054;-74
2023/11/13 04:46:11;;;;;;;38.22;34.92;;;;;;;0.93;100.00;101176.97;5006956;28;21362;-74
2023/11/13 04:48:39;;;;;;;25.58;23.88;;;;;;;1.01;100.00;101180.59;5009469;28;20103;-74
2023/11/13 04:51:06;;;;;;;26.88;25.27;;;;;;;1.07;100.00;101184.47;5008758;28;20096;-74
2023/11/13 04:53:34;;;;;;;25.42;23.73;;;;;;;1.13;100.00;101183.94;5007350;28;20423;-74
2023/11/13 04:56:01;;;;;;;28.90;27.30;;;;;;;1.40;100.00;101191.19;5007075;28;20053;-74
2023/11/13 04:58:28;;;;;;;28.92;27.23;;;;;;;1.30;100.00;101182.47;5007830;28;20137;-74
2023/11/13 05:00:56;;;;;;;26.70;25.40;;;;;;;1.02;100.00;101189.25;5010618;28;20045;-74
2023/11/13 05:03:24;;;;;;;25.73;24.42;;;;;;;0.85;100.00;101186.31;5000261;28;20104;-74
2023/11/13 05:05:51;;;;;;;22.65;21.45;;;;;;;0.74;100.00;101190.81;5005914;28;20049;-74
2023/11/13 05:08:18;;;;;;;22.52;21.25;;;;;;;0.94;100.00;101194.31;5007753;28;20727;-74
2023/11/13 05:10:46;;;;;;;22.80;21.30;;;;;;;0.84;100.00;101176.81;5007152;28;21418;-74
2023/11/13 05:13:15;;;;;;;24.58;23.27;;;;;;;0.91;100.00;101184.97;5007202;28;20435;-74
2023/11/13 05:15:42;;;;;;;20.17;18.88;;;;;;;0.65;100.00;101195.84;5010087;28;20430;-74
2023/11/13 05:18:09;;;;;;;19.98;18.77;;;;;;;0.88;100.00;101193.09;5006657;28;20082;-74
2023/11/13 05:20:40;;;;;;;19.30;18.20;;;;;;;1.02;100.00;101200.56;5007089;28;20475;-74
2023/11/13 05:23:07;;;;;;;19.08;17.88;;;;;;;1.00;100.00;101202.50;5005838;28;20064;-74
2023/11/13 05:25:34;;;;;;;19.60;18.50;;;;;;;0.57;100.00;101197.44;5012929;28;20116;-74
2023/11/13 05:28:06;;;;;;;19.33;18.13;;;;;;;0.60;100.00;101208.47;5009850;28;20054;-74
2023/11/13 05:30:33;;;;;;;21.92;19.98;;;;;;;0.85;100.00;101207.25;5013374;28;20798;-74
2023/11/13 05:33:00;;;;;;;21.25;20.02;;;;;;;1.01;100.00;101191.06;5014721;28;20050;-74
2023/11/13 05:35:27;;;;;;;20.60;19.40;;;;;;;0.91;100.00;101206.72;5014092;28;20045;-74
2023/11/13 05:37:54;;;;;;;20.15;18.98;;;;;;;0.94;100.00;101215.25;5010775;28;20053;-73
2023/11/13 05:40:21;;;;;;;21.45;20.13;;;;;;;1.05;100.00;101208.13;5012399;28;20404;-74
2023/11/13 05:42:48;;;;;;;22.60;21.25;;;;;;;1.18;100.00;101217.53;4978980;28;20483;-74
2023/11/13 05:45:17;;;;;;;22.58;21.00;;;;;;;1.21;100.00;101220.75;5013433;28;20099;-74
2023/11/13 05:47:44;;;;;;;20.65;19.45;;;;;;;1.47;100.00;101235.97;5012809;28;20053;-74
2023/11/13 05:50:11;;;;;;;19.48;18.27;;;;;;;1.56;100.00;101251.69;5010865;28;20048;-74
2023/11/13 05:52:38;;;;;;;18.80;17.80;;;;;;;1.98;100.00;101258.53;5010616;28;20450;-74
2023/11/13 05:55:08;;;;;;;19.85;18.75;;;;;;;2.37;100.00;101267.22;5013310;28;20046;-74
2023/11/13 05:57:35;;;;;;;20.33;19.23;;;;;;;2.72;100.00;101261.41;5016962;28;20046;-74
2023/11/13 06:00:03;;;;;;;22.40;21.20;;;;;;;3.05;100.00;101253.13;5017451;28;20507;-74
2023/11/13 06:02:32;;;;;;;22.20;20.90;;;;;;;3.57;100.00;101259.56;5008672;28;20057;-74
2023/11/13 06:04:59;;;;;;;23.30;22.00;;;;;;;3.61;100.00;101254.81;5006108;28;20046;-74
2023/11/13 06:07:26;;;;;;;25.30;23.80;;;;;;;3.75;100.00;101258.72;5011461;28;20100;-74
2023/11/13 06:09:54;;;;;;;27.00;25.17;;;;;;;4.21;100.00;101273.50;5012014;28;20048;-74
2023/11/13 06:12:21;;;;;;;24.88;23.40;;;;;;;4.58;100.00;101283.84;5013093;28;20053;-74
2023/11/13 06:14:49;;;;;;;25.23;23.63;;;;;;;4.94;100.00;101277.66;5012189;28;20049;-74
2023/11/13 06:17:16;;;;;;;26.58;24.77;;;;;;;4.77;100.00;101285.44;5010512;28;20046;-75
2023/11/13 06:19:44;;;;;;;27.48;25.67;;;;;;;5.09;100.00;101277.94;5015022;28;20116;-74
2023/11/13 06:22:11;;;;;;;25.65;24.05;;;;;;;5.39;100.00;101287.94;5011090;28;20046;-74
2023/11/13 06:24:38;;;;;;;25.48;23.73;;;;;;;5.83;100.00;101281.66;5006518;28;20050;-74
2023/11/13 06:27:06;;;;;;;24.25;22.55;;;;;;;6.48;100.00;101283.63;5011974;28;20053;-74
2023/11/13 06:29:33;;;;;;;25.05;23.25;;;;;;;7.32;100.00;101280.50;5011130;28;20715;-74
2023/11/13 06:32:01;;;;;;;25.38;23.67;;;;;;;7.73;100.00;101277.66;5010497;28;20050;-74
2023/11/13 06:34:28;;;;;;;26.13;24.33;;;;;;;8.55;100.00;101279.75;5011289;28;20124;-73
2023/11/13 06:36:57;;;;;;;30.23;27.83;;;;;;;8.64;100.00;101283.16;5013592;28;20046;-74
2023/11/13 06:39:24;;;;;;;101.15;68.22;;;;;;;9.13;100.00;101285.31;5013958;28;20503;-74
2023/11/13 06:41:50;;;;;;;75.80;62.22;;;;;;;8.89;100.00;101276.63;5016953;28;20053;-74
2023/11/13 06:44:17;;;;;;;127.97;74.13;;;;;;;8.59;100.00;101281.03;5019010;28;20057;-73
2023/11/13 06:46:44;;;;;;;49.53;43.55;;;;;;;8.72;100.00;101280.47;5016046;28;20056;-74
2023/11/13 06:49:11;;;;;;;30.55;27.90;;;;;;;8.26;100.00;101280.47;5011900;28;20133;-73
2023/11/13 06:51:38;;;;;;;26.67;24.80;;;;;;;7.91;100.00;101284.50;5013155;28;20042;-73
2023/11/13 06:54:07;;;;;;;20.80;19.60;;;;;;;7.88;100.00;101271.63;5013641;28;20041;-74
2023/11/13 06:56:36;;;;;;;22.48;21.08;;;;;;;7.76;100.00;101277.31;5016357;28;20050;-74
2023/11/13 06:59:03;;;;;;;20.70;19.40;;;;;;;7.82;100.00;101283.72;5012300;28;20050;-74
2023/11/13 07:01:40;;;;;;;21.65;20.23;;;;;;;7.93;100.00;101279.88;5013329;28;20041;-74
2023/11/13 07:04:09;;;;;;;21.80;20.50;;;;;;;7.74;100.00;101278.47;5004145;28;20061;-74
2023/11/13 07:06:39;;;;;;;23.10;21.70;;;;;;;7.57;100.00;101275.09;5009301;28;20052;-74
2023/11/13 07:09:10;;;;;;;21.20;19.90;;;;;;;7.05;100.00;101289.66;5008290;28;20454;-74
2023/11/13 07:11:42;;;;;;;20.70;19.40;;;;;;;7.32;100.00;101284.94;5011110;28;20057;-75
2023/11/13 07:14:09;;;;;;;21.27;19.98;;;;;;;7.51;100.00;101283.72;5014198;28;20133;-76
2023/11/13 07:16:37;;;;;;;20.65;19.35;;;;;;;7.37;100.00;101279.97;5011494;28;20530;-77
2023/11/13 07:19:04;;;;;;;21.00;19.80;;;;;;;7.24;100.00;101287.63;5011517;28;20123;-76
2023/11/13 07:21:31;;;;;;;20.25;19.05;;;;;;;7.36;100.00;101273.03;5011685;28;20053;-77
2023/11/13 07:23:58;;;;;;;20.00;18.80;;;;;;;7.48;100.00;101279.59;5012872;28;20505;-77
2023/11/13 07:26:29;;;;;;;20.77;19.48;;;;;;;7.39;100.00;101279.81;5014851;28;20447;-77
2023/11/13 07:28:56;;;;;;;20.80;19.60;;;;;;;7.17;100.00;101270.78;5015157;28;20447;-76
2023/11/13 07:31:23;;;;;;;20.38;19.23;;;;;;;7.82;100.00;101269.69;5011394;28;20108;-76
2023/11/13 07:33:51;;;;;;;18.20;17.20;;;;;;;8.04;100.00;101269.69;5014565;28;20423;-77
2023/11/13 07:36:18;;;;;;;19.63;18.52;;;;;;;7.84;100.00;101262.38;5011145;28;20053;-77
2023/11/13 07:38:45;;;;;;;19.60;18.40;;;;;;;7.87;100.00;101265.53;5010799;28;20049;-76
2023/11/13 07:41:12;;;;;;;20.58;19.20;;;;;;;8.08;100.00;101267.53;5010453;28;20045;-77
2023/11/13 07:43:41;;;;;;;23.55;21.98;;;;;;;8.01;100.00;101253.34;5011168;28;20049;-76
2023/11/13 07:46:11;;;;;;;22.70;21.30;;;;;;;7.88;100.00;101245.19;5011879;28;20045;-77
2023/11/13 07:48:40;;;;;;;21.70;20.30;;;;;;;8.00;100.00;101244.59;5014987;28;20060;-77
2023/11/13 07:51:08;;;;;;;20.80;19.35;;;;;;;7.77;100.00;101252.50;5011790;28;20038;-77
2023/11/13 07:53:36;;;;;;;22.05;20.55;;;;;;;8.12;100.00;101247.66;5010596;28;20052;-77
2023/11/13 07:56:03;;;;;;;24.00;22.40;;;;;;;8.44;100.00;101248.41;5008615;28;20046;-77
2023/11/13 07:58:30;;;;;;;22.90;21.33;;;;;;;8.44;100.00;101249.25;5010478;28;20499;-77
2023/11/13 08:00:58;;;;;;;23.90;22.30;;;;;;;8.64;100.00;101243.44;5009614;28;20133;-77
2023/11/13 08:03:27;;;;;;;22.88;21.50;;;;;;;9.05;100.00;101240.41;5007115;28;20049;-77
2023/11/13 08:05:57;;;;;;;21.98;20.67;;;;;;;9.26;100.00;101231.66;5007828;28;20487;-77
2023/11/13 08:08:23;;;;;;;23.00;21.60;;;;;;;9.20;100.00;101237.72;5010896;28;20077;-77
2023/11/13 08:10:51;;;;;;;23.35;21.95;;;;;;;9.80;100.00;101229.47;5010306;28;20050;-77
2023/11/13 08:13:19;;;;;;;23.48;21.98;;;;;;;10.11;100.00;101243.44;5005515;28;20046;-77
2023/11/13 08:15:46;;;;;;;24.10;22.50;;;;;;;11.51;100.00;101234.56;5009655;28;20049;-77
2023/11/13 08:18:14;;;;;;;23.92;22.42;;;;;;;12.11;100.00;101233.72;5009275;28;20052;-77
2023/11/13 08:20:42;;;;;;;26.75;24.98;;;;;;;12.26;100.00;101222.06;5007488;28;20077;-77
2023/11/13 08:23:11;;;;;;;25.27;23.67;;;;;;;12.98;100.00;101217.66;5007345;28;20089;-77
2023/11/13 08:25:38;;;;;;;27.35;25.55;;;;;;;13.33;100.00;101217.38;5006522;28;20487;-77
2023/11/13 08:28:05;;;;;;;24.80;23.10;;;;;;;13.37;100.00;101214.03;5009775;28;20048;-77
2023/11/13 08:30:32;;;;;;;23.70;22.17;;;;;;;12.82;100.00;101211.72;5010763;28;20498;-77
2023/11/13 08:32:59;;;;;;;24.60;23.00;;;;;;;12.71;100.00;101207.06;5008661;28;20060;-77
2023/11/13 08:35:27;;;;;;;24.98;23.42;;;;;;;12.82;100.00;101202.94;5010860;28;20046;-77
2023/11/13 08:37:54;;;;;;;22.60;21.10;;;;;;;12.99;100.00;101200.63;5011820;28;20057;-77
2023/11/13 08:40:24;;;;;;;53.78;42.20;;;;;;;13.34;100.00;101208.31;5010230;28;20081;-77
2023/11/13 08:42:52;;;;;;;29.02;26.25;;;;;;;12.73;100.00;101199.66;5008936;28;20356;-77
2023/11/13 08:45:19;;;;;;;24.30;22.70;;;;;;;13.38;100.00;101201.56;5011607;28;20061;-77
2023/11/13 08:47:48;;;;;;;23.60;22.00;;;;;;;13.41;100.00;101198.44;5006499;28;20506;-76
2023/11/13 08:50:15;;;;;;;25.10;23.40;;;;;;;12.26;100.00;101201.56;5009416;28;20081;-77
2023/11/13 08:52:45;;;;;;;24.60;23.00;;;;;;;13.12;100.00;101191.75;5007770;28;20062;-76
2023/11/13 08:55:16;;;;;;;23.45;21.95;;;;;;;12.19;100.00;101195.41;5007961;28;20052;-76
2023/11/13 08:57:44;;;;;;;22.38;20.88;;;;;;;11.82;100.00;101196.78;5011253;28;20069;-77
2023/11/13 09:00:18;;;;;;;23.80;22.20;;;;;;;12.59;100.00;101200.72;5010055;28;20045;-77
2023/11/13 09:02:47;;;;;;;24.27;22.58;;;;;;;13.29;100.00;101196.44;5012034;28;20057;-76
2023/11/13 09:05:14;;;;;;;24.02;22.27;;;;;;;12.31;100.00;101196.44;5006350;28;20069;-77
2023/11/13 09:07:41;;;;;;;25.65;23.52;;;;;;;12.12;100.00;101198.06;5012171;28;20103;-77
2023/11/13 09:10:10;;;;;;;25.45;23.35;;;;;;;12.33;100.00;101202.38;5011634;28;20123;-77
2023/11/13 09:12:38;;;;;;;22.85;21.15;;;;;;;12.37;100.00;101192.97;5012463;28;20045;-77
2023/11/13 09:15:11;;;;;;;23.80;22.10;;;;;;;12.36;100.00;101188.66;5011075;28;20054;-77
2023/11/13 09:17:43;;;;;;;24.20;22.55;;;;;;;12.19;100.00;101187.41;5012848;28;20451;-77
2023/11/13 09:20:14;;;;;;;25.10;23.50;;;;;;;12.72;100.00;101186.56;5010653;28;20053;-77
2023/11/13 09:22:42;;;;;;;24.52;22.73;;;;;;;14.28;100.00;101172.81;5011926;28;20490;-77
2023/11/13 09:25:14;;;;;;;24.50;22.83;;;;;;;14.55;100.00;101181.38;5011321;28;20054;-77
2023/11/13 09:27:42;;;;;;;23.30;21.77;;;;;;;13.79;100.00;101177.06;5009896;28;20120;-78
2023/11/13 09:30:10;;;;;;;23.95;22.35;;;;;;;14.70;100.00;101183.72;5013243;28;20046;-77
2023/11/13 09:32:39;;;;;;;24.33;22.60;;;;;;;16.23;100.00;101177.13;5015034;28;20042;-78
2023/11/13 09:35:17;;;;;;;24.67;23.08;;;;;;;14.27;100.00;101187.19;5011828;28;20054;-78
2023/11/13 09:37:45;;;;;;;23.67;22.17;;;;;;;15.07;100.00;101191.75;5012573;28;20064;-77
2023/11/13 09:40:15;;;;;;;23.35;22.05;;;;;;;14.30;100.00;101193.94;5012467;28;20056;-77
2023/11/13 09:42:46;;;;;;;22.52;21.23;;;;;;;17.01;100.00;101188.53;5011025;28;20068;-79
2023/11/13 09:45:15;;;;;;;21.90;20.50;;;;;;;16.71;100.00;101184.13;5011143;28;20057;-78
2023/11/13 09:47:45;;;;;;;21.20;19.80;;;;;;;16.57;100.00;101182.72;5011865;28;20645;-78
2023/11/13 09:50:16;;;;;;;23.13;21.65;;;;;;;17.39;100.00;101192.50;5011250;28;20042;-78
2023/11/13 09:52:48;;;;;;;21.60;20.20;;;;;;;15.63;100.00;101189.78;5010460;28;20058;-78
2023/11/13 09:55:20;;;;;;;22.15;20.85;;;;;;;15.38;100.00;101187.25;5006935;28;20120;-78
2023/11/13 09:57:51;;;;;;;22.33;20.98;;;;;;;14.08;100.00;101197.00;5012539;28;20061;-78
2023/11/13 10:00:19;;;;;;;21.00;19.80;;;;;;;15.34;100.00;101193.06;5016313;28;20049;-78
2023/11/13 10:02:48;;;;;;;23.13;21.05;;;;;;;14.31;100.00;101203.59;5012113;28;20083;-78
2023/11/13 10:05:16;;;;;;;23.17;21.67;;;;;;;13.86;100.00;101199.22;5006154;28;20054;-78
2023/11/13 10:07:49;;;;;;;22.27;20.88;;;;;;;14.19;100.00;101193.63;5012792;28;20135;-78
2023/11/13 10:10:22;;;;;;;21.02;19.63;;;;;;;14.29;100.00;101200.34;5011188;28;20514;-78
2023/11/13 10:12:50;;;;;;;21.85;20.45;;;;;;;13.88;100.00;101207.00;5012450;28;20507;-78
2023/11/13 10:15:26;;;;;;;19.60;18.20;;;;;;;14.57;100.00;101205.25;5012232;28;20061;-78
2023/11/13 10:17:53;;;;;;;25.15;23.35;;;;;;;14.25;100.00;101199.97;5009721;28;20052;-78
2023/11/13 10:20:21;;;;;;;24.50;22.90;;;;;;;14.36;100.00;101207.25;5012363;28;20049;-78
2023/11/13 10:22:59;;;;;;;24.25;22.75;;;;;;;16.90;100.00;101195.53;5012376;28;20522;-78
2023/11/13 10:25:30;;;;;;;25.63;23.98;;;;;;;15.48;100.00;101185.66;5013469;28;20045;-78
2023/11/13 10:27:59;;;;;;;26.58;24.77;;;;;;;16.76;100.00;101182.63;5016076;28;20051;-78
2023/11/13 10:30:28;;;;;;;23.30;21.80;;;;;;;17.10;100.00;101176.38;4975964;28;20049;-77
2023/11/13 10:32:56;;;;;;;26.15;24.65;;;;;;;16.63;100.00;101189.03;5008798;28;20042;-77
2023/11/13 10:35:35;;;;;;;26.40;24.70;;;;;;;15.91;100.00;101191.88;5013841;28;20077;-77
2023/11/13 10:38:03;;;;;;;22.60;21.30;;;;;;;16.72;100.00;101180.38;5012104;28;20562;-77
2023/11/13 10:40:31;;;;;;;24.20;22.70;;;;;;;16.26;100.00;101181.22;5012257;28;20045;-77
2023/11/13 10:43:04;;;;;;;25.13;23.63;;;;;;;15.16;100.00;101186.91;5012057;28;20046;-77
2023/11/13 10:45:32;;;;;;;21.13;19.80;;;;;;;16.30;100.00;101179.69;5011453;28;20046;-77
2023/11/13 10:47:59;;;;;;;25.50;23.90;;;;;;;15.24;100.00;101184.75;5013051;28;20446;-77
2023/11/13 10:50:26;;;;;;;24.73;23.23;;;;;;;14.06;100.00;101193.72;5010225;28;20145;-77
2023/11/13 10:52:59;;;;;;;23.25;21.75;;;;;;;15.50;100.00;101188.13;5011970;28;20483;-77
2023/11/13 10:55:28;;;;;;;23.98;22.48;;;;;;;15.03;100.00;101194.03;5011668;28;20511;-77
2023/11/13 10:57:57;;;;;;;22.75;21.35;;;;;;;15.93;100.00;101203.19;5011264;28;20052;-76
2023/11/13 11:00:24;;;;;;;22.27;20.88;;;;;;;14.62;100.00;101202.75;5009435;28;20089;-77
2023/11/13 11:02:56;;;;;;;21.30;19.95;;;;;;;14.99;100.00;101192.88;5007649;28;20041;-77
2023/11/13 11:05:24;;;;;;;22.88;21.38;;;;;;;14.58;100.00;101194.34;5004436;28;20483;-77
2023/11/13 11:07:55;;;;;;;25.38;23.77;;;;;;;14.12;100.00;101192.84;5006035;28;20050;-77
2023/11/13 11:10:26;;;;;;;22.30;20.90;;;;;;;13.49;100.00;101190.19;5007811;28;20061;-77
2023/11/13 11:13:02;;;;;;;20.60;19.30;;;;;;;15.56;100.00;101193.38;5010420;28;20543;-77
2023/11/13 11:15:45;;;;;;;22.70;21.30;;;;;;;16.89;100.00;101196.59;5007818;28;20490;-77